sensor_id;sensor_type;location;lat;lon;timestamp;P1;durP1;ratioP1;P2;durP2;ratioP2
53479;SDS011;56133;51.012;-1.648;2022-09-02T00:01:24;25.80;;;19.95;;
53479;SDS011;56133;51.012;-1.648;2022-09-02T00:04:06;24.08;;;19.27;;
53479;SDS011;56133;51.012;-1.648;2022-09-02T00:06:34;22.13;;;19.73;;
53479;SDS011;56133;51.012;-1.648;2022-09-02T00:09:00;26.58;;;19.92;;
53479;SDS011;56133;51.012;-1.648;2022-09-02T00:11:29;23.95;;;20.38;;
53479;SDS011;56133;51.012;-1.648;2022-09-02T00:13:56;25.48;;;20.55;;
53479;SDS011;56133;51.012;-1.648;2022-09-02T00:16:23;25.60;;;19.90;;
53479;SDS011;56133;51.012;-1.648;2022-09-02T00:18:50;24.88;;;19.83;;
53479;SDS011;56133;51.012;-1.648;2022-09-02T00:21:16;27.55;;;20.08;;
53479;SDS011;56133;51.012;-1.648;2022-09-02T00:23:43;25.92;;;20.10;;
53479;SDS011;56133;51.012;-1.648;2022-09-02T00:26:10;24.00;;;19.83;;
53479;SDS011;56133;51.012;-1.648;2022-09-02T00:28:36;25.17;;;21.17;;
53479;SDS011;56133;51.012;-1.648;2022-09-02T00:31:02;25.75;;;19.85;;
53479;SDS011;56133;51.012;-1.648;2022-09-02T00:33:28;26.80;;;20.52;;
53479;SDS011;56133;51.012;-1.648;2022-09-02T00:35:56;26.00;;;20.38;;
53479;SDS011;56133;51.012;-1.648;2022-09-02T00:38:27;28.38;;;20.58;;
53479;SDS011;56133;51.012;-1.648;2022-09-02T00:40:55;22.80;;;20.33;;
53479;SDS011;56133;51.012;-1.648;2022-09-02T00:43:21;24.63;;;20.52;;
53479;SDS011;56133;51.012;-1.648;2022-09-02T00:46:11;25.85;;;20.20;;
53479;SDS011;56133;51.012;-1.648;2022-09-02T00:48:41;25.42;;;20.23;;
53479;SDS011;56133;51.012;-1.648;2022-09-02T00:51:10;26.33;;;20.40;;
53479;SDS011;56133;51.012;-1.648;2022-09-02T00:53:37;23.75;;;20.08;;
53479;SDS011;56133;51.012;-1.648;2022-09-02T00:56:06;30.70;;;21.38;;
53479;SDS011;56133;51.012;-1.648;2022-09-02T00:58:37;26.52;;;21.30;;
53479;SDS011;56133;51.012;-1.648;2022-09-02T01:01:02;25.95;;;19.98;;
53479;SDS011;56133;51.012;-1.648;2022-09-02T01:03:29;25.38;;;21.90;;
53479;SDS011;56133;51.012;-1.648;2022-09-02T01:05:57;24.05;;;20.85;;
53479;SDS011;56133;51.012;-1.648;2022-09-02T01:08:25;26.75;;;21.40;;
53479;SDS011;56133;51.012;-1.648;2022-09-02T01:10:53;26.70;;;21.52;;
53479;SDS011;56133;51.012;-1.648;2022-09-02T01:13:21;27.25;;;21.15;;
53479;SDS011;56133;51.012;-1.648;2022-09-02T01:15:57;23.85;;;20.27;;
53479;SDS011;56133;51.012;-1.648;2022-09-02T01:18:27;24.25;;;20.40;;
53479;SDS011;56133;51.012;-1.648;2022-09-02T01:20:54;25.48;;;20.33;;
53479;SDS011;56133;51.012;-1.648;2022-09-02T01:23:21;24.88;;;20.85;;
53479;SDS011;56133;51.012;-1.648;2022-09-02T01:25:47;25.17;;;20.50;;
53479;SDS011;56133;51.012;-1.648;2022-09-02T01:28:14;28.45;;;19.92;;
53479;SDS011;56133;51.012;-1.648;2022-09-02T01:30:43;25.05;;;20.73;;
53479;SDS011;56133;51.012;-1.648;2022-09-02T01:33:12;27.17;;;20.23;;
53479;SDS011;56133;51.012;-1.648;2022-09-02T01:35:38;23.90;;;20.27;;
53479;SDS011;56133;51.012;-1.648;2022-09-02T01:38:04;26.25;;;19.65;;
53479;SDS011;56133;51.012;-1.648;2022-09-02T01:40:29;23.10;;;19.98;;
53479;SDS011;56133;51.012;-1.648;2022-09-02T01:42:57;25.65;;;19.85;;
53479;SDS011;56133;51.012;-1.648;2022-09-02T01:45:25;22.75;;;19.02;;
53479;SDS011;56133;51.012;-1.648;2022-09-02T01:47:52;21.98;;;18.48;;
53479;SDS011;56133;51.012;-1.648;2022-09-02T01:50:17;21.85;;;18.90;;
53479;SDS011;56133;51.012;-1.648;2022-09-02T01:52:43;25.88;;;18.48;;
53479;SDS011;56133;51.012;-1.648;2022-09-02T01:55:09;22.85;;;18.63;;
53479;SDS011;56133;51.012;-1.648;2022-09-02T01:57:34;25.73;;;19.35;;
53479;SDS011;56133;51.012;-1.648;2022-09-02T02:00:00;26.10;;;18.85;;
53479;SDS011;56133;51.012;-1.648;2022-09-02T02:02:26;23.40;;;17.40;;
53479;SDS011;56133;51.012;-1.648;2022-09-02T02:04:52;23.50;;;17.92;;
53479;SDS011;56133;51.012;-1.648;2022-09-02T02:07:19;24.67;;;18.48;;
53479;SDS011;56133;51.012;-1.648;2022-09-02T02:09:46;23.83;;;18.27;;
53479;SDS011;56133;51.012;-1.648;2022-09-02T02:12:12;20.52;;;18.23;;
53479;SDS011;56133;51.012;-1.648;2022-09-02T02:14:39;24.00;;;18.55;;
53479;SDS011;56133;51.012;-1.648;2022-09-02T02:17:04;21.13;;;18.48;;
53479;SDS011;56133;51.012;-1.648;2022-09-02T02:19:30;23.33;;;18.98;;
53479;SDS011;56133;51.012;-1.648;2022-09-02T02:21:55;24.52;;;18.58;;
53479;SDS011;56133;51.012;-1.648;2022-09-02T02:24:21;23.35;;;18.60;;
53479;SDS011;56133;51.012;-1.648;2022-09-02T02:26:46;24.85;;;18.52;;
53479;SDS011;56133;51.012;-1.648;2022-09-02T02:29:12;23.27;;;18.80;;
53479;SDS011;56133;51.012;-1.648;2022-09-02T02:31:38;22.25;;;18.85;;
53479;SDS011;56133;51.012;-1.648;2022-09-02T02:34:05;22.88;;;19.15;;
53479;SDS011;56133;51.012;-1.648;2022-09-02T02:36:30;24.38;;;20.27;;
53479;SDS011;56133;51.012;-1.648;2022-09-02T02:38:56;26.65;;;19.88;;
53479;SDS011;56133;51.012;-1.648;2022-09-02T02:41:21;25.90;;;18.83;;
53479;SDS011;56133;51.012;-1.648;2022-09-02T02:43:47;23.95;;;19.25;;
53479;SDS011;56133;51.012;-1.648;2022-09-02T02:46:13;23.98;;;18.80;;
53479;SDS011;56133;51.012;-1.648;2022-09-02T02:48:39;21.48;;;19.17;;
53479;SDS011;56133;51.012;-1.648;2022-09-02T02:51:06;24.17;;;18.75;;
53479;SDS011;56133;51.012;-1.648;2022-09-02T02:53:32;24.38;;;17.88;;
53479;SDS011;56133;51.012;-1.648;2022-09-02T02:55:58;22.60;;;18.27;;
53479;SDS011;56133;51.012;-1.648;2022-09-02T02:58:24;19.65;;;17.00;;
53479;SDS011;56133;51.012;-1.648;2022-09-02T03:00:50;20.98;;;16.17;;
53479;SDS011;56133;51.012;-1.648;2022-09-02T03:03:15;18.08;;;15.38;;
53479;SDS011;56133;51.012;-1.648;2022-09-02T03:05:44;20.60;;;15.65;;
53479;SDS011;56133;51.012;-1.648;2022-09-02T03:08:11;21.50;;;16.25;;
53479;SDS011;56133;51.012;-1.648;2022-09-02T03:10:38;18.95;;;16.02;;
53479;SDS011;56133;51.012;-1.648;2022-09-02T03:13:06;21.60;;;17.40;;
53479;SDS011;56133;51.012;-1.648;2022-09-02T03:15:33;20.38;;;16.70;;
53479;SDS011;56133;51.012;-1.648;2022-09-02T03:18:00;22.73;;;17.73;;
53479;SDS011;56133;51.012;-1.648;2022-09-02T03:20:26;19.27;;;17.20;;
53479;SDS011;56133;51.012;-1.648;2022-09-02T03:22:52;21.02;;;17.17;;
53479;SDS011;56133;51.012;-1.648;2022-09-02T03:25:20;19.02;;;16.85;;
53479;SDS011;56133;51.012;-1.648;2022-09-02T03:27:46;20.58;;;17.70;;
53479;SDS011;56133;51.012;-1.648;2022-09-02T03:30:14;20.38;;;16.27;;
53479;SDS011;56133;51.012;-1.648;2022-09-02T03:32:42;22.48;;;18.23;;
53479;SDS011;56133;51.012;-1.648;2022-09-02T03:35:10;23.38;;;18.27;;
53479;SDS011;56133;51.012;-1.648;2022-09-02T03:37:38;22.40;;;17.88;;
53479;SDS011;56133;51.012;-1.648;2022-09-02T03:40:07;20.35;;;18.17;;
53479;SDS011;56133;51.012;-1.648;2022-09-02T03:42:36;23.65;;;19.08;;
53479;SDS011;56133;51.012;-1.648;2022-09-02T03:45:03;22.20;;;17.92;;
53479;SDS011;56133;51.012;-1.648;2022-09-02T03:47:30;28.60;;;20.85;;
53479;SDS011;56133;51.012;-1.648;2022-09-02T03:49:55;26.40;;;21.05;;
53479;SDS011;56133;51.012;-1.648;2022-09-02T03:52:21;26.63;;;21.40;;
53479;SDS011;56133;51.012;-1.648;2022-09-02T03:54:47;28.48;;;21.95;;
53479;SDS011;56133;51.012;-1.648;2022-09-02T03:57:13;27.08;;;21.30;;
53479;SDS011;56133;51.012;-1.648;2022-09-02T03:59:38;23.45;;;20.10;;
53479;SDS011;56133;51.012;-1.648;2022-09-02T04:02:04;27.52;;;20.23;;
53479;SDS011;56133;51.012;-1.648;2022-09-02T04:04:30;22.67;;;18.20;;
53479;SDS011;56133;51.012;-1.648;2022-09-02T04:06:56;22.48;;;17.42;;
53479;SDS011;56133;51.012;-1.648;2022-09-02T04:09:21;19.73;;;16.80;;
53479;SDS011;56133;51.012;-1.648;2022-09-02T04:11:46;23.75;;;17.77;;
53479;SDS011;56133;51.012;-1.648;2022-09-02T04:14:12;22.85;;;17.45;;
53479;SDS011;56133;51.012;-1.648;2022-09-02T04:16:38;22.33;;;18.60;;
53479;SDS011;56133;51.012;-1.648;2022-09-02T04:19:04;24.63;;;19.35;;
53479;SDS011;56133;51.012;-1.648;2022-09-02T04:21:33;25.48;;;19.20;;
53479;SDS011;56133;51.012;-1.648;2022-09-02T04:24:02;26.65;;;20.10;;
53479;SDS011;56133;51.012;-1.648;2022-09-02T04:26:28;24.30;;;20.15;;
53479;SDS011;56133;51.012;-1.648;2022-09-02T04:28:54;29.15;;;19.80;;
53479;SDS011;56133;51.012;-1.648;2022-09-02T04:31:20;24.08;;;18.25;;
53479;SDS011;56133;51.012;-1.648;2022-09-02T04:33:49;22.73;;;17.30;;
53479;SDS011;56133;51.012;-1.648;2022-09-02T04:36:15;24.75;;;16.42;;
53479;SDS011;56133;51.012;-1.648;2022-09-02T04:38:42;21.83;;;16.15;;
53479;SDS011;56133;51.012;-1.648;2022-09-02T04:41:09;17.25;;;15.02;;
53479;SDS011;56133;51.012;-1.648;2022-09-02T04:43:36;20.27;;;14.40;;
53479;SDS011;56133;51.012;-1.648;2022-09-02T04:46:03;14.88;;;13.23;;
53479;SDS011;56133;51.012;-1.648;2022-09-02T04:48:30;16.33;;;13.43;;
53479;SDS011;56133;51.012;-1.648;2022-09-02T04:50:56;20.02;;;13.57;;
53479;SDS011;56133;51.012;-1.648;2022-09-02T04:53:22;16.70;;;13.25;;
53479;SDS011;56133;51.012;-1.648;2022-09-02T04:55:48;18.65;;;13.02;;
53479;SDS011;56133;51.012;-1.648;2022-09-02T04:58:13;18.33;;;15.30;;
53479;SDS011;56133;51.012;-1.648;2022-09-02T05:00:40;18.13;;;14.02;;
53479;SDS011;56133;51.012;-1.648;2022-09-02T05:03:06;18.75;;;13.15;;
53479;SDS011;56133;51.012;-1.648;2022-09-02T05:05:32;16.58;;;11.18;;
53479;SDS011;56133;51.012;-1.648;2022-09-02T05:07:59;14.13;;;11.48;;
53479;SDS011;56133;51.012;-1.648;2022-09-02T05:10:26;17.27;;;12.25;;
53479;SDS011;56133;51.012;-1.648;2022-09-02T05:12:53;17.98;;;11.93;;
53479;SDS011;56133;51.012;-1.648;2022-09-02T05:15:19;18.25;;;12.45;;
53479;SDS011;56133;51.012;-1.648;2022-09-02T05:17:45;21.17;;;14.52;;
53479;SDS011;56133;51.012;-1.648;2022-09-02T05:20:10;20.63;;;15.43;;
53479;SDS011;56133;51.012;-1.648;2022-09-02T05:22:37;20.35;;;14.93;;
53479;SDS011;56133;51.012;-1.648;2022-09-02T05:25:03;20.23;;;16.52;;
53479;SDS011;56133;51.012;-1.648;2022-09-02T05:27:31;19.05;;;16.13;;
53479;SDS011;56133;51.012;-1.648;2022-09-02T05:29:57;23.25;;;17.83;;
53479;SDS011;56133;51.012;-1.648;2022-09-02T05:32:25;24.10;;;18.00;;
53479;SDS011;56133;51.012;-1.648;2022-09-02T05:34:52;24.92;;;18.15;;
53479;SDS011;56133;51.012;-1.648;2022-09-02T05:37:18;23.98;;;18.40;;
53479;SDS011;56133;51.012;-1.648;2022-09-02T05:39:43;24.13;;;19.00;;
53479;SDS011;56133;51.012;-1.648;2022-09-02T05:42:09;24.00;;;18.60;;
53479;SDS011;56133;51.012;-1.648;2022-09-02T05:44:35;26.15;;;19.60;;
53479;SDS011;56133;51.012;-1.648;2022-09-02T05:47:01;25.63;;;19.48;;
53479;SDS011;56133;51.012;-1.648;2022-09-02T05:49:26;29.75;;;20.05;;
53479;SDS011;56133;51.012;-1.648;2022-09-02T05:51:53;25.60;;;18.88;;
53479;SDS011;56133;51.012;-1.648;2022-09-02T05:54:25;24.70;;;18.05;;
53479;SDS011;56133;51.012;-1.648;2022-09-02T05:56:56;23.10;;;17.35;;
53479;SDS011;56133;51.012;-1.648;2022-09-02T05:59:26;20.02;;;15.60;;
53479;SDS011;56133;51.012;-1.648;2022-09-02T06:01:53;20.17;;;15.93;;
53479;SDS011;56133;51.012;-1.648;2022-09-02T06:04:19;22.15;;;15.73;;
53479;SDS011;56133;51.012;-1.648;2022-09-02T06:06:46;22.55;;;16.00;;
53479;SDS011;56133;51.012;-1.648;2022-09-02T06:09:13;20.45;;;14.80;;
53479;SDS011;56133;51.012;-1.648;2022-09-02T06:11:41;21.60;;;16.13;;
53479;SDS011;56133;51.012;-1.648;2022-09-02T06:14:13;23.48;;;15.73;;
53479;SDS011;56133;51.012;-1.648;2022-09-02T06:16:41;24.67;;;15.73;;
53479;SDS011;56133;51.012;-1.648;2022-09-02T06:19:07;25.25;;;15.63;;
53479;SDS011;56133;51.012;-1.648;2022-09-02T06:21:34;19.27;;;14.75;;
53479;SDS011;56133;51.012;-1.648;2022-09-02T06:24:00;20.02;;;15.20;;
53479;SDS011;56133;51.012;-1.648;2022-09-02T06:26:28;20.80;;;15.55;;
53479;SDS011;56133;51.012;-1.648;2022-09-02T06:28:53;24.25;;;15.88;;
53479;SDS011;56133;51.012;-1.648;2022-09-02T06:31:20;23.02;;;15.32;;
53479;SDS011;56133;51.012;-1.648;2022-09-02T06:33:47;21.33;;;14.90;;
53479;SDS011;56133;51.012;-1.648;2022-09-02T06:36:15;34.83;;;17.00;;
53479;SDS011;56133;51.012;-1.648;2022-09-02T06:38:44;22.95;;;16.00;;
53479;SDS011;56133;51.012;-1.648;2022-09-02T06:41:15;17.75;;;14.82;;
53479;SDS011;56133;51.012;-1.648;2022-09-02T06:43:43;21.00;;;14.90;;
53479;SDS011;56133;51.012;-1.648;2022-09-02T06:46:13;19.10;;;15.02;;
53479;SDS011;56133;51.012;-1.648;2022-09-02T06:48:43;19.23;;;14.55;;
53479;SDS011;56133;51.012;-1.648;2022-09-02T06:51:14;20.42;;;14.68;;
53479;SDS011;56133;51.012;-1.648;2022-09-02T06:53:47;22.95;;;15.05;;
53479;SDS011;56133;51.012;-1.648;2022-09-02T06:56:13;21.83;;;15.23;;
53479;SDS011;56133;51.012;-1.648;2022-09-02T06:58:39;23.35;;;15.38;;
53479;SDS011;56133;51.012;-1.648;2022-09-02T07:01:04;22.65;;;14.27;;
53479;SDS011;56133;51.012;-1.648;2022-09-02T07:03:31;22.00;;;16.13;;
53479;SDS011;56133;51.012;-1.648;2022-09-02T07:06:15;24.52;;;16.67;;
53479;SDS011;56133;51.012;-1.648;2022-09-02T07:08:41;24.35;;;16.23;;
53479;SDS011;56133;51.012;-1.648;2022-09-02T07:11:14;21.83;;;16.08;;
53479;SDS011;56133;51.012;-1.648;2022-09-02T07:13:41;21.55;;;14.68;;
53479;SDS011;56133;51.012;-1.648;2022-09-02T07:16:07;22.58;;;14.68;;
53479;SDS011;56133;51.012;-1.648;2022-09-02T07:18:33;24.17;;;14.85;;
53479;SDS011;56133;51.012;-1.648;2022-09-02T07:20:59;17.08;;;14.07;;
53479;SDS011;56133;51.012;-1.648;2022-09-02T07:23:25;20.42;;;14.25;;
53479;SDS011;56133;51.012;-1.648;2022-09-02T07:25:51;20.13;;;14.15;;
53479;SDS011;56133;51.012;-1.648;2022-09-02T07:28:17;21.38;;;14.27;;
53479;SDS011;56133;51.012;-1.648;2022-09-02T07:30:43;18.23;;;13.23;;
53479;SDS011;56133;51.012;-1.648;2022-09-02T07:33:10;19.40;;;12.73;;
53479;SDS011;56133;51.012;-1.648;2022-09-02T07:35:39;18.75;;;12.60;;
53479;SDS011;56133;51.012;-1.648;2022-09-02T07:38:06;19.92;;;12.20;;
53479;SDS011;56133;51.012;-1.648;2022-09-02T07:40:32;14.90;;;11.50;;
53479;SDS011;56133;51.012;-1.648;2022-09-02T07:43:00;20.23;;;11.70;;
53479;SDS011;56133;51.012;-1.648;2022-09-02T07:45:30;15.32;;;11.00;;
53479;SDS011;56133;51.012;-1.648;2022-09-02T07:47:56;16.35;;;10.15;;
53479;SDS011;56133;51.012;-1.648;2022-09-02T07:50:23;15.98;;;10.23;;
53479;SDS011;56133;51.012;-1.648;2022-09-02T07:52:51;15.25;;;10.50;;
53479;SDS011;56133;51.012;-1.648;2022-09-02T07:55:18;14.40;;;10.18;;
53479;SDS011;56133;51.012;-1.648;2022-09-02T07:57:44;16.80;;;9.80;;
53479;SDS011;56133;51.012;-1.648;2022-09-02T08:00:10;13.55;;;9.45;;
53479;SDS011;56133;51.012;-1.648;2022-09-02T08:02:37;18.38;;;10.05;;
53479;SDS011;56133;51.012;-1.648;2022-09-02T08:05:03;12.90;;;9.18;;
53479;SDS011;56133;51.012;-1.648;2022-09-02T08:07:28;20.52;;;9.95;;
53479;SDS011;56133;51.012;-1.648;2022-09-02T08:09:54;18.17;;;9.55;;
53479;SDS011;56133;51.012;-1.648;2022-09-02T08:12:19;16.60;;;9.68;;
53479;SDS011;56133;51.012;-1.648;2022-09-02T08:14:45;15.75;;;9.77;;
53479;SDS011;56133;51.012;-1.648;2022-09-02T08:17:11;16.33;;;10.05;;
53479;SDS011;56133;51.012;-1.648;2022-09-02T08:19:36;15.45;;;9.35;;
53479;SDS011;56133;51.012;-1.648;2022-09-02T08:22:05;16.10;;;9.52;;
53479;SDS011;56133;51.012;-1.648;2022-09-02T08:24:31;15.48;;;9.35;;
53479;SDS011;56133;51.012;-1.648;2022-09-02T08:26:57;15.57;;;9.15;;
53479;SDS011;56133;51.012;-1.648;2022-09-02T08:29:24;14.52;;;8.77;;
53479;SDS011;56133;51.012;-1.648;2022-09-02T08:31:49;14.10;;;8.07;;
53479;SDS011;56133;51.012;-1.648;2022-09-02T08:34:15;17.15;;;9.05;;
53479;SDS011;56133;51.012;-1.648;2022-09-02T08:36:40;14.15;;;8.20;;
53479;SDS011;56133;51.012;-1.648;2022-09-02T08:39:07;17.45;;;8.60;;
53479;SDS011;56133;51.012;-1.648;2022-09-02T08:44:20;14.60;;;7.87;;
53479;SDS011;56133;51.012;-1.648;2022-09-02T08:46:48;13.43;;;7.28;;
53479;SDS011;56133;51.012;-1.648;2022-09-02T08:51:50;11.70;;;7.18;;
53479;SDS011;56133;51.012;-1.648;2022-09-02T08:56:51;14.20;;;7.15;;
53479;SDS011;56133;51.012;-1.648;2022-09-02T08:59:17;14.52;;;7.80;;
53479;SDS011;56133;51.012;-1.648;2022-09-02T09:07:12;15.68;;;6.70;;
53479;SDS011;56133;51.012;-1.648;2022-09-02T09:15:32;12.68;;;6.68;;
53479;SDS011;56133;51.012;-1.648;2022-09-02T09:18:07;29.33;;;7.57;;
53479;SDS011;56133;51.012;-1.648;2022-09-02T09:20:39;10.90;;;6.63;;
53479;SDS011;56133;51.012;-1.648;2022-09-02T09:23:26;12.43;;;6.70;;
53479;SDS011;56133;51.012;-1.648;2022-09-02T09:25:59;14.07;;;7.13;;
53479;SDS011;56133;51.012;-1.648;2022-09-02T09:28:39;10.05;;;6.60;;
53479;SDS011;56133;51.012;-1.648;2022-09-02T09:31:11;12.77;;;6.45;;
53479;SDS011;56133;51.012;-1.648;2022-09-02T09:42:11;12.98;;;6.18;;
53479;SDS011;56133;51.012;-1.648;2022-09-02T09:44:45;11.70;;;6.53;;
53479;SDS011;56133;51.012;-1.648;2022-09-02T09:47:22;12.52;;;6.18;;
53479;SDS011;56133;51.012;-1.648;2022-09-02T09:50:09;11.25;;;6.53;;
53479;SDS011;56133;51.012;-1.648;2022-09-02T09:52:44;12.73;;;6.75;;
53479;SDS011;56133;51.012;-1.648;2022-09-02T09:55:13;12.07;;;6.43;;
53479;SDS011;56133;51.012;-1.648;2022-09-02T09:57:40;12.63;;;6.63;;
53479;SDS011;56133;51.012;-1.648;2022-09-02T10:00:21;9.52;;;6.15;;
53479;SDS011;56133;51.012;-1.648;2022-09-02T10:02:51;13.02;;;6.40;;
53479;SDS011;56133;51.012;-1.648;2022-09-02T10:11:06;14.10;;;6.93;;
53479;SDS011;56133;51.012;-1.648;2022-09-02T10:13:43;11.73;;;6.47;;
53479;SDS011;56133;51.012;-1.648;2022-09-02T10:19:09;9.68;;;6.00;;
53479;SDS011;56133;51.012;-1.648;2022-09-02T10:27:15;12.98;;;7.07;;
53479;SDS011;56133;51.012;-1.648;2022-09-02T10:30:34;11.40;;;7.20;;
53479;SDS011;56133;51.012;-1.648;2022-09-02T10:33:05;13.85;;;6.95;;
53479;SDS011;56133;51.012;-1.648;2022-09-02T10:38:38;14.73;;;6.28;;
53479;SDS011;56133;51.012;-1.648;2022-09-02T10:47:02;15.85;;;7.07;;
53479;SDS011;56133;51.012;-1.648;2022-09-02T10:50:01;15.48;;;5.88;;
53479;SDS011;56133;51.012;-1.648;2022-09-02T10:52:48;10.82;;;5.72;;
53479;SDS011;56133;51.012;-1.648;2022-09-02T10:58:39;21.30;;;6.28;;
53479;SDS011;56133;51.012;-1.648;2022-09-02T11:01:47;13.98;;;6.35;;
53479;SDS011;56133;51.012;-1.648;2022-09-02T11:04:35;13.98;;;6.15;;
53479;SDS011;56133;51.012;-1.648;2022-09-02T11:07:05;10.65;;;6.13;;
53479;SDS011;56133;51.012;-1.648;2022-09-02T11:09:54;12.45;;;5.90;;
53479;SDS011;56133;51.012;-1.648;2022-09-02T11:15:10;15.00;;;5.53;;
53479;SDS011;56133;51.012;-1.648;2022-09-02T11:17:48;14.07;;;5.00;;
53479;SDS011;56133;51.012;-1.648;2022-09-02T11:22:56;8.10;;;4.78;;
53479;SDS011;56133;51.012;-1.648;2022-09-02T11:25:24;11.75;;;5.03;;
53479;SDS011;56133;51.012;-1.648;2022-09-02T11:30:52;11.75;;;5.13;;
53479;SDS011;56133;51.012;-1.648;2022-09-02T11:33:29;12.85;;;4.80;;
53479;SDS011;56133;51.012;-1.648;2022-09-02T11:36:07;11.00;;;4.50;;
53479;SDS011;56133;51.012;-1.648;2022-09-02T11:38:34;9.68;;;4.45;;
53479;SDS011;56133;51.012;-1.648;2022-09-02T11:43:59;12.82;;;4.32;;
53479;SDS011;56133;51.012;-1.648;2022-09-02T11:49:35;8.65;;;4.20;;
53479;SDS011;56133;51.012;-1.648;2022-09-02T11:52:17;13.30;;;5.15;;
53479;SDS011;56133;51.012;-1.648;2022-09-02T11:54:57;9.25;;;4.38;;
53479;SDS011;56133;51.012;-1.648;2022-09-02T11:57:31;10.65;;;4.90;;
53479;SDS011;56133;51.012;-1.648;2022-09-02T12:07:59;7.55;;;4.32;;
53479;SDS011;56133;51.012;-1.648;2022-09-02T12:13:10;12.65;;;4.38;;
53479;SDS011;56133;51.012;-1.648;2022-09-02T12:18:36;7.15;;;4.05;;
53479;SDS011;56133;51.012;-1.648;2022-09-02T12:21:04;9.52;;;3.75;;
53479;SDS011;56133;51.012;-1.648;2022-09-02T12:26:16;16.30;;;4.70;;
53479;SDS011;56133;51.012;-1.648;2022-09-02T12:41:50;9.93;;;3.92;;
53479;SDS011;56133;51.012;-1.648;2022-09-02T12:47:00;7.82;;;3.47;;
53479;SDS011;56133;51.012;-1.648;2022-09-02T12:55:20;11.40;;;3.85;;
53479;SDS011;56133;51.012;-1.648;2022-09-02T12:57:49;7.50;;;3.22;;
53479;SDS011;56133;51.012;-1.648;2022-09-02T13:00:25;16.58;;;3.47;;
53479;SDS011;56133;51.012;-1.648;2022-09-02T13:17:28;8.90;;;2.90;;
53479;SDS011;56133;51.012;-1.648;2022-09-02T13:29:05;7.15;;;2.35;;
53479;SDS011;56133;51.012;-1.648;2022-09-02T13:31:57;7.25;;;2.47;;
53479;SDS011;56133;51.012;-1.648;2022-09-02T13:34:43;6.00;;;2.67;;
53479;SDS011;56133;51.012;-1.648;2022-09-02T13:37:31;6.68;;;2.50;;
53479;SDS011;56133;51.012;-1.648;2022-09-02T13:39:57;5.75;;;2.90;;
53479;SDS011;56133;51.012;-1.648;2022-09-02T13:42:25;7.35;;;2.78;;
53479;SDS011;56133;51.012;-1.648;2022-09-02T13:45:09;8.45;;;3.40;;
53479;SDS011;56133;51.012;-1.648;2022-09-02T13:47:36;6.57;;;3.03;;
53479;SDS011;56133;51.012;-1.648;2022-09-02T13:50:06;6.32;;;3.10;;
53479;SDS011;56133;51.012;-1.648;2022-09-02T13:52:32;8.30;;;2.80;;
53479;SDS011;56133;51.012;-1.648;2022-09-02T13:55:02;7.68;;;3.50;;
53479;SDS011;56133;51.012;-1.648;2022-09-02T13:57:28;9.18;;;3.90;;
53479;SDS011;56133;51.012;-1.648;2022-09-02T13:59:55;11.90;;;3.80;;
53479;SDS011;56133;51.012;-1.648;2022-09-02T14:02:22;7.53;;;3.65;;
53479;SDS011;56133;51.012;-1.648;2022-09-02T14:04:55;11.02;;;4.00;;
53479;SDS011;56133;51.012;-1.648;2022-09-02T14:07:31;8.63;;;3.70;;
53479;SDS011;56133;51.012;-1.648;2022-09-02T14:10:02;8.05;;;3.63;;
53479;SDS011;56133;51.012;-1.648;2022-09-02T14:12:31;8.63;;;3.75;;
53479;SDS011;56133;51.012;-1.648;2022-09-02T14:14:58;9.90;;;3.45;;
53479;SDS011;56133;51.012;-1.648;2022-09-02T14:17:25;7.05;;;3.50;;
53479;SDS011;56133;51.012;-1.648;2022-09-02T14:19:51;8.68;;;4.10;;
53479;SDS011;56133;51.012;-1.648;2022-09-02T14:22:40;8.68;;;4.43;;
53479;SDS011;56133;51.012;-1.648;2022-09-02T14:25:13;9.40;;;4.70;;
53479;SDS011;56133;51.012;-1.648;2022-09-02T14:28:19;8.20;;;4.00;;
53479;SDS011;56133;51.012;-1.648;2022-09-02T14:30:52;8.70;;;4.25;;
53479;SDS011;56133;51.012;-1.648;2022-09-02T14:35:57;8.05;;;4.72;;
53479;SDS011;56133;51.012;-1.648;2022-09-02T14:48:56;9.02;;;4.55;;
53479;SDS011;56133;51.012;-1.648;2022-09-02T14:51:31;6.47;;;4.38;;
53479;SDS011;56133;51.012;-1.648;2022-09-02T14:53:58;9.10;;;4.90;;
53479;SDS011;56133;51.012;-1.648;2022-09-02T14:56:42;7.88;;;4.40;;
53479;SDS011;56133;51.012;-1.648;2022-09-02T14:59:12;10.55;;;4.47;;
53479;SDS011;56133;51.012;-1.648;2022-09-02T15:01:41;9.25;;;4.50;;
53479;SDS011;56133;51.012;-1.648;2022-09-02T15:04:11;11.43;;;4.07;;
53479;SDS011;56133;51.012;-1.648;2022-09-02T15:06:36;11.82;;;4.90;;
53479;SDS011;56133;51.012;-1.648;2022-09-02T15:09:02;9.93;;;4.47;;
53479;SDS011;56133;51.012;-1.648;2022-09-02T15:11:27;10.35;;;4.68;;
53479;SDS011;56133;51.012;-1.648;2022-09-02T15:13:53;11.50;;;5.10;;
53479;SDS011;56133;51.012;-1.648;2022-09-02T15:16:18;9.40;;;4.57;;
53479;SDS011;56133;51.012;-1.648;2022-09-02T15:18:44;9.13;;;4.28;;
53479;SDS011;56133;51.012;-1.648;2022-09-02T15:21:10;10.70;;;5.47;;
53479;SDS011;56133;51.012;-1.648;2022-09-02T15:23:35;10.10;;;4.65;;
53479;SDS011;56133;51.012;-1.648;2022-09-02T15:26:03;7.75;;;4.63;;
53479;SDS011;56133;51.012;-1.648;2022-09-02T15:28:29;11.15;;;4.72;;
53479;SDS011;56133;51.012;-1.648;2022-09-02T15:30:58;10.63;;;5.18;;
53479;SDS011;56133;51.012;-1.648;2022-09-02T15:33:25;11.90;;;5.32;;
53479;SDS011;56133;51.012;-1.648;2022-09-02T15:35:51;10.05;;;4.47;;
53479;SDS011;56133;51.012;-1.648;2022-09-02T15:38:17;8.30;;;4.57;;
53479;SDS011;56133;51.012;-1.648;2022-09-02T15:40:42;9.80;;;4.85;;
53479;SDS011;56133;51.012;-1.648;2022-09-02T15:43:11;11.82;;;5.00;;
53479;SDS011;56133;51.012;-1.648;2022-09-02T15:45:38;10.48;;;5.05;;
53479;SDS011;56133;51.012;-1.648;2022-09-02T15:48:11;13.50;;;6.00;;
53479;SDS011;56133;51.012;-1.648;2022-09-02T15:50:36;9.95;;;6.07;;
53479;SDS011;56133;51.012;-1.648;2022-09-02T15:53:01;10.27;;;5.45;;
53479;SDS011;56133;51.012;-1.648;2022-09-02T15:55:30;11.52;;;5.63;;
53479;SDS011;56133;51.012;-1.648;2022-09-02T15:57:56;8.77;;;4.88;;
53479;SDS011;56133;51.012;-1.648;2022-09-02T16:00:22;7.57;;;4.95;;
53479;SDS011;56133;51.012;-1.648;2022-09-02T16:02:48;10.82;;;5.72;;
53479;SDS011;56133;51.012;-1.648;2022-09-02T16:05:14;8.57;;;4.90;;
53479;SDS011;56133;51.012;-1.648;2022-09-02T16:07:39;9.80;;;5.03;;
53479;SDS011;56133;51.012;-1.648;2022-09-02T16:10:05;7.30;;;4.72;;
53479;SDS011;56133;51.012;-1.648;2022-09-02T16:12:31;9.10;;;4.40;;
53479;SDS011;56133;51.012;-1.648;2022-09-02T16:14:56;9.82;;;4.28;;
53479;SDS011;56133;51.012;-1.648;2022-09-02T16:17:22;7.05;;;3.72;;
53479;SDS011;56133;51.012;-1.648;2022-09-02T16:19:47;9.68;;;4.20;;
53479;SDS011;56133;51.012;-1.648;2022-09-02T16:22:13;9.32;;;4.25;;
53479;SDS011;56133;51.012;-1.648;2022-09-02T16:24:38;4.50;;;3.38;;
53479;SDS011;56133;51.012;-1.648;2022-09-02T16:27:04;7.88;;;3.70;;
53479;SDS011;56133;51.012;-1.648;2022-09-02T16:29:29;4.28;;;3.53;;
53479;SDS011;56133;51.012;-1.648;2022-09-02T16:31:56;6.53;;;3.70;;
53479;SDS011;56133;51.012;-1.648;2022-09-02T16:34:22;6.80;;;4.05;;
53479;SDS011;56133;51.012;-1.648;2022-09-02T16:36:48;6.40;;;4.35;;
53479;SDS011;56133;51.012;-1.648;2022-09-02T16:39:17;8.27;;;5.00;;
53479;SDS011;56133;51.012;-1.648;2022-09-02T16:41:48;8.85;;;5.07;;
53479;SDS011;56133;51.012;-1.648;2022-09-02T16:44:18;9.38;;;4.80;;
53479;SDS011;56133;51.012;-1.648;2022-09-02T16:46:46;6.50;;;4.60;;
53479;SDS011;56133;51.012;-1.648;2022-09-02T16:49:14;7.97;;;5.43;;